createdAt,value
2022-11-20T00:02:13.128Z,17.40
2022-11-20T00:04:41.973Z,15.70
2022-11-20T00:07:10.600Z,18.80
2022-11-20T00:09:39.141Z,19.70
2022-11-20T00:12:07.725Z,21.40
2022-11-20T00:14:36.309Z,21.00
2022-11-20T00:17:04.894Z,15.80
2022-11-20T00:19:33.786Z,16.50
2022-11-20T00:22:02.372Z,16.10
2022-11-20T00:24:31.058Z,18.30
2022-11-20T00:26:59.642Z,18.90
2022-11-20T00:29:28.230Z,19.70
2022-11-20T00:31:56.913Z,22.50
2022-11-20T00:34:25.601Z,22.40
2022-11-20T00:36:54.388Z,21.00
2022-11-20T00:39:23.460Z,19.90
2022-11-20T00:41:52.479Z,19.60
2022-11-20T00:44:20.961Z,18.60
2022-11-20T00:46:49.545Z,21.70
2022-11-20T00:49:18.460Z,17.90
2022-11-20T00:51:47.430Z,19.60
2022-11-20T00:54:16.118Z,19.50
2022-11-20T00:56:44.714Z,20.10
2022-11-20T00:59:13.491Z,19.60
2022-11-20T01:01:42.283Z,19.20
2022-11-20T01:04:11.072Z,20.10
2022-11-20T01:06:41.096Z,18.20
2022-11-20T01:09:14.487Z,18.90
2022-11-20T01:11:45.448Z,16.80
2022-11-20T01:14:18.562Z,20.20
2022-11-20T01:16:51.700Z,21.10
2022-11-20T01:19:24.183Z,20.10
2022-11-20T01:21:55.289Z,17.50
2022-11-20T01:24:24.735Z,18.10
2022-11-20T01:26:53.623Z,18.70
2022-11-20T01:29:25.476Z,16.40
2022-11-20T01:31:54.588Z,18.50
2022-11-20T01:34:23.920Z,20.20
2022-11-20T01:36:54.749Z,20.70
2022-11-20T01:39:27.284Z,19.80
2022-11-20T01:42:15.753Z,16.40
2022-11-20T01:44:53.752Z,19.70
2022-11-20T01:47:40.973Z,19.10
2022-11-20T01:50:22.261Z,19.30
2022-11-20T01:52:59.935Z,19.90
2022-11-20T01:55:34.467Z,20.10
2022-11-20T01:58:05.248Z,20.20
2022-11-20T02:00:34.310Z,17.30
2022-11-20T02:03:10.549Z,18.30
2022-11-20T02:05:58.926Z,21.00
2022-11-20T02:08:27.509Z,18.70
2022-11-20T02:10:56.195Z,20.50
2022-11-20T02:13:43.837Z,18.10
2022-11-20T02:16:21.124Z,20.50
2022-11-20T02:18:50.720Z,17.60
2022-11-20T02:21:50.037Z,16.90
2022-11-20T02:24:21.310Z,16.20
2022-11-20T02:27:00.305Z,16.60
2022-11-20T02:29:40.631Z,18.40
2022-11-20T02:32:29.687Z,19.00
2022-11-20T02:34:58.379Z,16.80
2022-11-20T02:37:35.395Z,20.90
2022-11-20T02:40:05.210Z,18.70
2022-11-20T02:42:33.794Z,17.60
2022-11-20T02:45:02.484Z,17.30
2022-11-20T02:47:31.681Z,18.70
2022-11-20T02:50:00.459Z,16.20
2022-11-20T02:52:28.909Z,15.90
2022-11-20T02:54:57.839Z,17.70
2022-11-20T02:57:26.528Z,20.00
2022-11-20T02:59:55.214Z,17.70
2022-11-20T03:02:23.799Z,18.10
2022-11-20T03:04:52.588Z,17.50
2022-11-20T03:07:21.115Z,17.80
2022-11-20T03:09:49.861Z,19.60
2022-11-20T03:12:18.448Z,19.00
2022-11-20T03:14:52.592Z,17.30
2022-11-20T03:17:21.757Z,18.80
2022-11-20T03:19:50.446Z,17.80
2022-11-20T03:22:18.926Z,22.60
2022-11-20T03:24:47.512Z,15.90
2022-11-20T03:27:15.991Z,17.40
2022-11-20T03:29:44.679Z,18.10
2022-11-20T03:32:13.265Z,16.40
2022-11-20T03:34:41.957Z,17.60
2022-11-20T03:37:10.847Z,18.10
2022-11-20T03:39:39.327Z,18.90
2022-11-20T03:42:27.985Z,17.60
2022-11-20T03:44:56.875Z,15.00
2022-11-20T03:47:25.458Z,15.50
2022-11-20T03:49:54.143Z,17.40
2022-11-20T03:52:22.582Z,16.20
2022-11-20T03:54:51.311Z,14.30
2022-11-20T03:57:19.997Z,18.30
2022-11-20T03:59:48.584Z,15.80
2022-11-20T04:02:17.235Z,18.30
2022-11-20T04:04:45.960Z,17.80
2022-11-20T04:07:14.483Z,15.80
2022-11-20T04:09:43.131Z,16.50
2022-11-20T04:12:11.609Z,18.00
2022-11-20T04:14:40.304Z,18.00
2022-11-20T04:17:08.879Z,16.00
2022-11-20T04:19:37.464Z,17.30
2022-11-20T04:22:06.151Z,17.40
2022-11-20T04:24:34.836Z,17.70
2022-11-20T04:27:03.420Z,15.90
2022-11-20T04:29:32.008Z,16.20
2022-11-20T04:32:00.589Z,15.70
2022-11-20T04:34:29.174Z,16.60
2022-11-20T04:36:57.655Z,15.80
2022-11-20T04:39:26.239Z,17.80
2022-11-20T04:42:14.792Z,19.60
2022-11-20T04:44:43.375Z,15.80
2022-11-20T04:47:11.961Z,15.80
2022-11-20T04:49:40.570Z,18.90
2022-11-20T04:52:09.232Z,27.90
2022-11-20T04:54:37.815Z,22.70
2022-11-20T04:57:11.361Z,14.80
2022-11-20T04:59:42.975Z,21.30
2022-11-20T05:02:13.056Z,31.40
2022-11-20T05:04:41.575Z,26.60
2022-11-20T05:07:10.187Z,64.20
2022-11-20T05:09:38.949Z,27.90
2022-11-20T05:12:09.820Z,17.50
2022-11-20T05:14:38.371Z,17.10
2022-11-20T05:17:07.159Z,23.20
2022-11-20T05:19:35.744Z,20.00
2022-11-20T05:22:05.763Z,16.10
2022-11-20T05:24:34.352Z,17.60
2022-11-20T05:27:03.138Z,25.10
2022-11-20T05:29:31.720Z,21.30
2022-11-20T05:32:00.307Z,17.40
2022-11-20T05:34:28.993Z,17.10
2022-11-20T05:36:57.578Z,23.70
2022-11-20T05:39:26.165Z,18.40
2022-11-20T05:42:14.712Z,21.80
2022-11-20T05:44:43.297Z,19.40
2022-11-20T05:47:11.883Z,21.70
2022-11-20T05:49:40.586Z,18.50
2022-11-20T05:52:09.157Z,17.10
2022-11-20T05:54:37.741Z,19.40
2022-11-20T05:57:06.219Z,19.90
2022-11-20T05:59:34.806Z,20.60
2022-11-20T06:02:03.496Z,84.60
2022-11-20T06:04:34.029Z,32.50
2022-11-20T06:07:02.546Z,31.10
2022-11-20T06:09:31.396Z,27.00
2022-11-20T06:12:00.091Z,22.80
2022-11-20T06:14:28.768Z,30.80
2022-11-20T06:16:57.555Z,24.60
2022-11-20T06:19:26.042Z,23.30
2022-11-20T06:21:54.528Z,18.40
2022-11-20T06:24:24.029Z,16.10
2022-11-20T06:26:52.713Z,23.30
2022-11-20T06:29:21.571Z,23.60
2022-11-20T06:31:50.599Z,24.50
2022-11-20T06:34:19.151Z,21.30
2022-11-20T06:36:47.946Z,19.80
2022-11-20T06:39:16.659Z,22.60
2022-11-20T06:41:45.345Z,56.30
2022-11-20T06:44:14.100Z,31.80
2022-11-20T06:46:42.720Z,20.30
2022-11-20T06:49:11.200Z,21.10
2022-11-20T06:51:39.683Z,18.60
2022-11-20T06:54:08.577Z,30.70
2022-11-20T06:56:37.159Z,21.70
2022-11-20T06:59:07.844Z,22.50
2022-11-20T07:01:36.377Z,22.50
2022-11-20T07:04:05.472Z,37.20
2022-11-20T07:06:33.953Z,21.90
2022-11-20T07:09:02.969Z,24.60
2022-11-20T07:11:31.429Z,33.20
2022-11-20T07:14:00.116Z,25.90
2022-11-20T07:16:28.803Z,23.40
2022-11-20T07:18:57.490Z,23.10
2022-11-20T07:21:26.075Z,22.90
2022-11-20T07:23:54.764Z,32.10
2022-11-20T07:26:23.655Z,29.60
2022-11-20T07:28:52.243Z,26.10
2022-11-20T07:31:20.925Z,22.10
2022-11-20T07:33:49.611Z,21.00
2022-11-20T07:36:18.196Z,20.30
2022-11-20T07:38:46.780Z,23.50
2022-11-20T07:41:16.183Z,24.30
2022-11-20T07:43:44.665Z,25.50
2022-11-20T07:46:13.252Z,24.00
2022-11-20T07:48:41.937Z,35.80
2022-11-20T07:51:10.624Z,26.80
2022-11-20T07:53:39.311Z,22.50
2022-11-20T07:56:08.802Z,30.40
2022-11-20T07:58:37.406Z,22.50
2022-11-20T08:01:08.308Z,24.00
2022-11-20T08:03:39.938Z,22.50
2022-11-20T08:06:09.298Z,30.00
2022-11-20T08:08:42.484Z,25.40
2022-11-20T08:11:30.635Z,27.10
2022-11-20T08:14:14.493Z,26.00
2022-11-20T08:16:47.463Z,27.10
2022-11-20T08:19:19.802Z,27.20
2022-11-20T08:21:48.739Z,23.40
2022-11-20T08:24:17.312Z,24.90
2022-11-20T08:26:45.904Z,33.50
2022-11-20T08:29:14.587Z,31.30
2022-11-20T08:31:43.171Z,35.00
2022-11-20T08:34:31.721Z,27.70
2022-11-20T08:37:00.308Z,33.90
2022-11-20T08:39:29.404Z,23.30
2022-11-20T08:41:58.089Z,23.70
2022-11-20T08:44:26.674Z,22.70
2022-11-20T08:46:55.258Z,24.50
2022-11-20T08:49:24.260Z,24.60
2022-11-20T08:51:54.989Z,29.80
2022-11-20T08:54:23.979Z,29.00
2022-11-20T08:56:52.873Z,23.20
2022-11-20T08:59:43.817Z,24.30
2022-11-20T09:02:10.727Z,25.40
2022-11-20T09:04:39.310Z,24.30
2022-11-20T09:07:08.033Z,37.20
2022-11-20T09:09:36.685Z,25.40
2022-11-20T09:12:05.781Z,39.50
2022-11-20T09:14:34.900Z,29.70
2022-11-20T09:17:03.870Z,37.10
2022-11-20T09:19:36.349Z,35.10
2022-11-20T09:22:05.148Z,28.40
2022-11-20T09:24:33.956Z,22.40
2022-11-20T09:27:06.636Z,23.90
2022-11-20T09:29:35.190Z,28.10
2022-11-20T09:32:04.183Z,27.40
2022-11-20T09:34:32.988Z,26.10
2022-11-20T09:37:04.606Z,22.50
2022-11-20T09:39:40.248Z,23.80
2022-11-20T09:42:21.774Z,21.40
2022-11-20T09:45:31.516Z,24.90
2022-11-20T09:48:34.310Z,21.90
2022-11-20T09:51:47.642Z,23.90
2022-11-20T09:54:27.962Z,23.00
2022-11-20T09:57:41.975Z,27.70
2022-11-20T10:00:16.484Z,25.90
2022-11-20T10:02:54.071Z,24.40
2022-11-20T10:05:42.208Z,26.00
2022-11-20T10:08:25.748Z,24.70
2022-11-20T10:11:16.654Z,26.30
2022-11-20T10:13:57.326Z,24.80
2022-11-20T10:16:41.455Z,24.30
2022-11-20T10:20:11.910Z,24.50
2022-11-20T10:23:18.311Z,24.40
2022-11-20T10:26:09.496Z,19.30
2022-11-20T10:28:52.751Z,20.60
2022-11-20T10:31:37.892Z,23.50
2022-11-20T10:34:24.805Z,22.40
2022-11-20T10:37:12.640Z,22.10
2022-11-20T10:40:19.015Z,22.20
2022-11-20T10:43:00.499Z,28.00
2022-11-20T10:45:57.447Z,19.50
2022-11-20T10:48:28.742Z,24.10
2022-11-20T10:51:34.346Z,22.60
2022-11-20T10:54:52.398Z,17.50
2022-11-20T10:57:26.652Z,20.60
2022-11-20T11:00:12.029Z,22.10
2022-11-20T11:02:48.975Z,24.80
2022-11-20T11:05:42.026Z,22.80
2022-11-20T11:08:17.974Z,21.20
2022-11-20T11:10:59.860Z,23.30
2022-11-20T11:13:32.254Z,23.70
2022-11-20T11:16:00.943Z,24.30
2022-11-20T11:18:33.227Z,18.00
2022-11-20T11:21:05.583Z,26.20
2022-11-20T11:23:44.004Z,20.10
2022-11-20T11:26:24.967Z,22.20
2022-11-20T11:29:00.009Z,19.00
2022-11-20T11:31:31.186Z,17.80
2022-11-20T11:34:06.883Z,19.90
2022-11-20T11:36:37.435Z,26.20
2022-11-20T11:39:17.338Z,19.20
2022-11-20T11:41:47.302Z,22.10
2022-11-20T11:44:42.204Z,26.30
2022-11-20T11:47:23.281Z,22.10
2022-11-20T11:50:18.680Z,17.40
2022-11-20T11:53:13.599Z,17.30
2022-11-20T11:56:11.366Z,16.40
2022-11-20T11:58:54.184Z,20.40
2022-11-20T12:01:50.085Z,20.10
2022-11-20T12:04:47.600Z,24.70
2022-11-20T12:07:49.860Z,23.70
2022-11-20T12:10:54.282Z,19.30
2022-11-20T12:13:35.454Z,16.60
2022-11-20T12:16:05.925Z,21.00
2022-11-20T12:18:34.872Z,22.60
2022-11-20T12:21:16.367Z,20.50
2022-11-20T12:24:07.577Z,22.90
2022-11-20T12:27:06.367Z,25.20
2022-11-20T12:30:09.710Z,27.50
2022-11-20T12:33:09.891Z,30.40
2022-11-20T12:36:07.871Z,31.00
2022-11-20T12:39:01.480Z,32.30
2022-11-20T12:42:04.531Z,29.80
2022-11-20T12:45:11.722Z,27.80
2022-11-20T12:48:26.896Z,25.30
2022-11-20T12:51:57.027Z,29.50
2022-11-20T12:54:56.535Z,24.60
2022-11-20T12:57:55.020Z,28.20
2022-11-20T13:00:26.090Z,29.80
2022-11-20T13:03:08.267Z,29.10
2022-11-20T13:05:54.259Z,23.50
2022-11-20T13:08:31.485Z,26.20
2022-11-20T13:11:19.484Z,25.20
2022-11-20T13:13:59.742Z,23.80
2022-11-20T13:17:19.630Z,21.80
2022-11-20T13:19:56.208Z,18.90
2022-11-20T13:22:59.090Z,27.00
2022-11-20T13:25:31.228Z,23.50
2022-11-20T13:28:11.006Z,21.30
2022-11-20T13:30:52.987Z,22.50
2022-11-20T13:33:36.481Z,21.70
2022-11-20T13:36:24.470Z,26.00
2022-11-20T13:38:56.140Z,24.40
2022-11-20T13:41:42.502Z,29.70
2022-11-20T13:44:26.734Z,28.10
2022-11-20T13:47:00.970Z,28.60
2022-11-20T13:49:46.177Z,30.00
2022-11-20T13:52:25.618Z,27.20
2022-11-20T13:55:02.673Z,31.10
2022-11-20T13:57:49.409Z,30.40
2022-11-20T14:00:21.699Z,28.60
2022-11-20T14:03:18.118Z,27.40
2022-11-20T14:06:07.552Z,34.70
2022-11-20T14:08:52.060Z,31.10
2022-11-20T14:11:22.172Z,36.30
2022-11-20T14:14:30.503Z,31.30
2022-11-20T14:17:26.431Z,25.10
2022-11-20T14:19:56.408Z,28.40
2022-11-20T14:22:27.879Z,27.50
2022-11-20T14:25:28.720Z,26.80
2022-11-20T14:28:02.015Z,24.40
2022-11-20T14:30:46.067Z,24.40
2022-11-20T14:33:16.478Z,23.20
2022-11-20T14:35:57.393Z,26.90
2022-11-20T14:38:29.948Z,28.50
2022-11-20T14:41:10.667Z,34.30
2022-11-20T14:43:39.501Z,27.10
2022-11-20T14:46:11.500Z,31.40
2022-11-20T14:48:50.652Z,26.40
2022-11-20T14:51:42.458Z,26.70
2022-11-20T14:54:20.319Z,25.40
2022-11-20T14:57:05.399Z,20.00
2022-11-20T14:59:36.033Z,21.60
2022-11-20T15:02:12.403Z,21.20
2022-11-20T15:05:04.491Z,21.10
2022-11-20T15:07:41.421Z,25.20
2022-11-20T15:10:13.219Z,22.90
2022-11-20T15:12:51.661Z,24.30
2022-11-20T15:15:40.756Z,26.00
2022-11-20T15:18:44.477Z,24.40
2022-11-20T15:21:18.750Z,27.70
2022-11-20T15:23:47.473Z,28.50
2022-11-20T15:26:29.224Z,30.30
2022-11-20T15:28:57.746Z,29.00
2022-11-20T15:31:26.637Z,32.70
2022-11-20T15:33:55.222Z,36.20
2022-11-20T15:36:23.807Z,31.10
2022-11-20T15:38:52.391Z,34.10
2022-11-20T15:41:22.957Z,27.10
2022-11-20T15:43:52.119Z,25.40
2022-11-20T15:46:29.219Z,24.80
2022-11-20T15:48:58.772Z,65.30
2022-11-20T15:51:35.593Z,69.50
2022-11-20T15:54:21.608Z,70.30
2022-11-20T15:56:54.535Z,91.10
2022-11-20T15:59:23.154Z,158.30
2022-11-20T16:01:51.868Z,99.70
2022-11-20T16:04:20.979Z,51.30
2022-11-20T16:06:49.938Z,75.40
2022-11-20T16:09:18.616Z,63.30
2022-11-20T16:11:47.407Z,61.90
2022-11-20T16:14:34.651Z,63.00
2022-11-20T16:17:04.447Z,56.40
2022-11-20T16:19:32.925Z,72.40
2022-11-20T16:22:04.482Z,91.30
2022-11-20T16:24:33.175Z,85.00
2022-11-20T16:27:01.853Z,126.60
2022-11-20T16:29:30.436Z,121.50
2022-11-20T16:31:59.123Z,79.90
2022-11-20T16:34:28.062Z,50.50
2022-11-20T16:36:57.110Z,43.60
2022-11-20T16:39:26.594Z,31.40
2022-11-20T16:41:55.303Z,34.20
2022-11-20T16:44:24.017Z,27.20
2022-11-20T16:46:52.777Z,35.30
2022-11-20T16:49:21.466Z,51.40
2022-11-20T16:51:50.358Z,55.60
2022-11-20T16:54:21.188Z,98.70
2022-11-20T16:56:52.151Z,101.20
2022-11-20T16:59:20.923Z,115.40
2022-11-20T17:01:50.274Z,118.90
2022-11-20T17:04:19.117Z,110.60
2022-11-20T17:06:48.330Z,119.70
2022-11-20T17:09:17.302Z,61.40
2022-11-20T17:11:45.996Z,60.20
2022-11-20T17:14:14.685Z,36.90
2022-11-20T17:16:43.371Z,71.20
2022-11-20T17:19:12.904Z,76.50
2022-11-20T17:21:41.970Z,84.10
2022-11-20T17:24:13.532Z,47.30
2022-11-20T17:26:44.803Z,79.70
2022-11-20T17:29:19.150Z,67.10
2022-11-20T17:31:49.109Z,114.30
2022-11-20T17:34:18.174Z,126.10
2022-11-20T17:36:46.891Z,64.50
2022-11-20T17:39:17.682Z,57.30
2022-11-20T17:42:06.590Z,48.50
2022-11-20T17:44:35.381Z,43.30
2022-11-20T17:47:04.372Z,47.20
2022-11-20T17:49:32.855Z,50.80
2022-11-20T17:52:01.470Z,61.90
2022-11-20T17:54:30.228Z,44.00
2022-11-20T17:57:17.347Z,45.50
2022-11-20T17:59:45.932Z,55.60
2022-11-20T18:02:14.518Z,53.40
2022-11-20T18:04:43.385Z,62.20
2022-11-20T18:07:12.135Z,54.30
2022-11-20T18:09:40.884Z,41.10
2022-11-20T18:12:09.578Z,29.20
2022-11-20T18:14:38.175Z,24.40
2022-11-20T18:17:10.672Z,23.20
2022-11-20T18:19:55.600Z,23.40
2022-11-20T18:22:31.562Z,24.50
2022-11-20T18:25:00.143Z,29.70
2022-11-20T18:27:28.828Z,36.00
2022-11-20T18:29:57.412Z,34.30
2022-11-20T18:32:25.893Z,32.90
2022-11-20T18:34:54.585Z,36.40
2022-11-20T18:37:23.168Z,29.50
2022-11-20T18:39:52.029Z,30.10
2022-11-20T18:42:39.073Z,32.20
2022-11-20T18:45:08.444Z,25.70
2022-11-20T18:47:40.433Z,28.30
2022-11-20T18:50:10.593Z,31.00
2022-11-20T18:52:44.653Z,30.30
2022-11-20T18:55:14.123Z,28.90
2022-11-20T18:57:42.665Z,30.20
2022-11-20T19:00:12.944Z,31.10
2022-11-20T19:02:43.285Z,25.00
2022-11-20T19:05:14.828Z,23.60
2022-11-20T19:07:43.734Z,26.40
2022-11-20T19:10:12.466Z,26.10
2022-11-20T19:12:41.034Z,23.70
2022-11-20T19:15:10.422Z,22.80
2022-11-20T19:17:39.121Z,23.00
2022-11-20T19:20:08.511Z,22.80
2022-11-20T19:22:39.544Z,23.40
2022-11-20T19:25:09.308Z,25.90
2022-11-20T19:27:38.892Z,25.30
2022-11-20T19:30:09.686Z,23.30
2022-11-20T19:32:38.205Z,24.70
2022-11-20T19:35:07.888Z,30.60
2022-11-20T19:37:37.122Z,30.90
2022-11-20T19:40:07.608Z,31.30
2022-11-20T19:42:36.128Z,35.30
2022-11-20T19:45:06.731Z,27.70
2022-11-20T19:48:01.009Z,26.00
2022-11-20T19:50:26.054Z,25.00
2022-11-20T19:52:58.709Z,115.20
2022-11-20T19:55:29.100Z,116.20
2022-11-20T19:57:57.842Z,116.50
2022-11-20T20:00:31.215Z,49.10
2022-11-20T20:03:01.782Z,59.70
2022-11-20T20:05:31.831Z,64.20
2022-11-20T20:08:00.278Z,54.90
2022-11-20T20:10:31.064Z,50.10
2022-11-20T20:13:00.709Z,67.80
2022-11-20T20:15:29.302Z,139.00
2022-11-20T20:17:58.088Z,120.10
2022-11-20T20:20:28.080Z,98.90
2022-11-20T20:22:57.509Z,96.80
2022-11-20T20:25:27.015Z,90.20
2022-11-20T20:27:56.931Z,98.10
2022-11-20T20:30:25.833Z,57.60
2022-11-20T20:32:56.562Z,98.60
2022-11-20T20:35:28.182Z,47.50
2022-11-20T20:37:58.639Z,51.90
2022-11-20T20:40:28.772Z,30.30
2022-11-20T20:42:57.962Z,33.10
2022-11-20T20:45:28.799Z,41.80
2022-11-20T20:47:58.719Z,37.60
2022-11-20T20:50:28.594Z,37.70
2022-11-20T20:52:58.239Z,36.20
2022-11-20T20:55:27.821Z,49.30
2022-11-20T20:57:56.330Z,43.20
2022-11-20T21:00:26.376Z,63.60
2022-11-20T21:02:55.034Z,60.00
2022-11-20T21:05:23.515Z,51.10
2022-11-20T21:08:10.840Z,36.70
2022-11-20T21:10:39.526Z,39.70
2022-11-20T21:13:08.213Z,30.90
2022-11-20T21:15:40.599Z,24.30
2022-11-20T21:18:10.772Z,29.10
2022-11-20T21:21:01.418Z,31.00
2022-11-20T21:23:32.707Z,30.90
2022-11-20T21:26:07.421Z,33.20
2022-11-20T21:28:37.933Z,39.50
2022-11-20T21:31:13.186Z,52.80
2022-11-20T21:33:46.755Z,56.50
2022-11-20T21:36:20.838Z,51.80
2022-11-20T21:38:53.683Z,50.80
2022-11-20T21:41:25.179Z,48.30
2022-11-20T21:44:29.765Z,44.10
2022-11-20T21:46:46.790Z,38.30
2022-11-20T21:49:17.822Z,34.40
2022-11-20T21:51:46.483Z,33.30
2022-11-20T21:54:15.131Z,28.60
2022-11-20T21:56:43.649Z,41.50
2022-11-20T21:59:14.226Z,87.00
2022-11-20T22:01:43.074Z,45.40
2022-11-20T22:04:15.957Z,34.10
2022-11-20T22:06:44.545Z,29.10
2022-11-20T22:09:13.232Z,27.60
2022-11-20T22:11:41.818Z,27.70
2022-11-20T22:14:24.297Z,43.50
2022-11-20T22:16:54.137Z,27.40
2022-11-20T22:19:23.629Z,22.50
2022-11-20T22:21:52.365Z,24.40
2022-11-20T22:24:23.212Z,30.10
2022-11-20T22:26:52.160Z,25.70
2022-11-20T22:29:21.885Z,26.60
2022-11-20T22:31:54.041Z,26.00
2022-11-20T22:34:23.007Z,35.10
2022-11-20T22:36:52.025Z,25.50
2022-11-20T22:39:23.106Z,29.20
2022-11-20T22:41:51.758Z,29.60
2022-11-20T22:44:20.339Z,30.90
2022-11-20T22:46:48.822Z,35.20
2022-11-20T22:49:17.405Z,23.30
2022-11-20T22:51:45.989Z,30.10
2022-11-20T22:54:14.783Z,25.90
2022-11-20T22:56:43.471Z,24.10
2022-11-20T22:59:12.666Z,26.40
2022-11-20T23:01:41.249Z,21.80
2022-11-20T23:04:11.876Z,24.60
2022-11-20T23:06:40.568Z,26.50
2022-11-20T23:09:10.109Z,24.20
2022-11-20T23:11:39.275Z,27.00
2022-11-20T23:14:16.185Z,23.70
2022-11-20T23:16:44.636Z,25.30
2022-11-20T23:19:14.854Z,26.20
2022-11-20T23:21:44.054Z,24.80
2022-11-20T23:24:12.742Z,25.50
2022-11-20T23:26:42.149Z,26.00
2022-11-20T23:29:10.795Z,23.50
2022-11-20T23:31:39.931Z,23.00
2022-11-20T23:34:08.417Z,26.80
2022-11-20T23:36:37.713Z,26.30
2022-11-20T23:39:06.195Z,26.70
2022-11-20T23:41:35.187Z,25.40
2022-11-20T23:44:04.593Z,25.30
2022-11-20T23:46:33.176Z,23.80
2022-11-20T23:49:01.761Z,28.50
2022-11-20T23:51:30.344Z,25.60
2022-11-20T23:54:03.386Z,23.60
2022-11-20T23:56:33.662Z,24.30
2022-11-20T23:59:02.142Z,24.50
